Check out our new PWSWeather beta!
PWSweather.com
Personal Weather Stations
Station Observations
KMDSOLOM1
solomons, Solomons, MD 20688

solomonsSolomons, MD 20688

Lat: 38.32, Lon: -76.45

Elevation: 5

Station Type:

http://www.act-us.info/weather

High Low Average
Temperature 62.6°F17.0°C 50.7°F10.4°C 53.7°F12.1°C
Dew Point 50.5°F10.3°C 42.5°F5.8°C 46.7°F8.2°C
Winds 12.0 mph 19.3 kmh Calm Calm 6.0 mph ENE9.7 kmh ENE
Wind Gusts 13.0 mph20.9 kmh -- 8.0 mph12.9 kmh
Humidity 90% 51% 77%
Pressure 30.15 in1021.0 mb 30.00 in1015.9 mb -
Precipitation 0.00 in0.0 mm - -
Hour Temp Dew Point Humidity Winds Wind Gusts Pressure Precip Precip Rate Daily Precip Total
12:00 AM 52.3°F11.3°C 43.9°F6.6°C 73% 2.0 mph ESE3.2 kmh ESE 9.0 mph14.5 kmh 30.15 in1021.0 mb 0.00 in0.0 mm 0.00 in0.0 mm 0.00 in0.0 mm
12:05 AM 52.4°F11.3°C 44.0°F6.7°C 73% 2.0 mph ESE3.2 kmh ESE 9.0 mph14.5 kmh 30.15 in1021.0 mb 0.00 in0.0 mm 0.00 in0.0 mm 0.00 in0.0 mm
12:10 AM 52.6°F11.4°C 43.8°F6.6°C 72% 2.0 mph ESE3.2 kmh ESE 3.0 mph4.8 kmh 30.14 in1020.7 mb 0.00 in0.0 mm 0.00 in0.0 mm 0.00 in0.0 mm
12:15 AM 52.6°F11.4°C 44.2°F6.8°C 73% 4.0 mph ESE6.4 kmh ESE 7.0 mph11.3 kmh 30.14 in1020.7 mb 0.00 in0.0 mm 0.00 in0.0 mm 0.00 in0.0 mm
12:20 AM 52.6°F11.4°C 44.2°F6.8°C 73% 2.0 mph ESE3.2 kmh ESE 10.0 mph16.1 kmh 30.14 in1020.7 mb 0.00 in0.0 mm 0.00 in0.0 mm 0.00 in0.0 mm
12:25 AM 52.6°F11.4°C 44.2°F6.8°C 73% 4.0 mph ESE6.4 kmh ESE 4.0 mph6.4 kmh 30.14 in1020.7 mb 0.00 in0.0 mm 0.00 in0.0 mm 0.00 in0.0 mm
12:30 AM 52.4°F11.3°C 44.0°F6.7°C 73% 3.0 mph ESE4.8 kmh ESE 8.0 mph12.9 kmh 30.14 in1020.7 mb 0.00 in0.0 mm 0.00 in0.0 mm 0.00 in0.0 mm
12:35 AM 52.4°F11.3°C 44.0°F6.7°C 73% 6.0 mph ESE9.7 kmh ESE 9.0 mph14.5 kmh 30.14 in1020.7 mb 0.00 in0.0 mm 0.00 in0.0 mm 0.00 in0.0 mm
12:40 AM 52.3°F11.3°C 44.3°F6.8°C 74% 9.0 mph ESE14.5 kmh ESE 9.0 mph14.5 kmh 30.13 in1020.3 mb 0.00 in0.0 mm 0.00 in0.0 mm 0.00 in0.0 mm
12:45 AM 52.3°F11.3°C 43.9°F6.6°C 73% 2.0 mph ESE3.2 kmh ESE 10.0 mph16.1 kmh 30.13 in1020.3 mb 0.00 in0.0 mm 0.00 in0.0 mm 0.00 in0.0 mm
12:50 AM 52.2°F11.2°C 44.2°F6.8°C 74% 2.0 mph ESE3.2 kmh ESE 10.0 mph16.1 kmh 30.12 in1020.0 mb 0.00 in0.0 mm 0.00 in0.0 mm 0.00 in0.0 mm
12:55 AM 52.0°F11.1°C 44.0°F6.7°C 74% 2.0 mph ESE3.2 kmh ESE 6.0 mph9.7 kmh 30.12 in1020.0 mb 0.00 in0.0 mm 0.00 in0.0 mm 0.00 in0.0 mm
01:00 AM 52.0°F11.1°C 44.3°F6.8°C 75% 2.0 mph ESE3.2 kmh ESE 6.0 mph9.7 kmh 30.12 in1020.0 mb 0.00 in0.0 mm 0.00 in0.0 mm 0.00 in0.0 mm
01:05 AM 51.9°F11.1°C 44.6°F7.0°C 76% 2.0 mph ESE3.2 kmh ESE 9.0 mph14.5 kmh 30.12 in1020.0 mb 0.00 in0.0 mm 0.00 in0.0 mm 0.00 in0.0 mm
01:10 AM 51.8°F11.0°C 44.1°F6.7°C 75% 4.0 mph ESE6.4 kmh ESE 4.0 mph6.4 kmh 30.12 in1020.0 mb 0.00 in0.0 mm 0.00 in0.0 mm 0.00 in0.0 mm
01:15 AM 51.6°F10.9°C 44.3°F6.8°C 76% 7.0 mph ESE11.3 kmh ESE 8.0 mph12.9 kmh 30.12 in1020.0 mb 0.00 in0.0 mm 0.00 in0.0 mm 0.00 in0.0 mm
01:20 AM 51.6°F10.9°C 44.0°F6.7°C 75% 8.0 mph E12.9 kmh E 11.0 mph17.7 kmh 30.12 in1020.0 mb 0.00 in0.0 mm 0.00 in0.0 mm 0.00 in0.0 mm
01:25 AM 51.5°F10.8°C 44.2°F6.8°C 76% 4.0 mph E6.4 kmh E 8.0 mph12.9 kmh 30.12 in1020.0 mb 0.00 in0.0 mm 0.00 in0.0 mm 0.00 in0.0 mm
01:30 AM 51.5°F10.8°C 44.2°F6.8°C 76% 8.0 mph E12.9 kmh E 10.0 mph16.1 kmh 30.11 in1019.6 mb 0.00 in0.0 mm 0.00 in0.0 mm 0.00 in0.0 mm
01:35 AM 51.4°F10.8°C 44.4°F6.9°C 77% 9.0 mph E14.5 kmh E 10.0 mph16.1 kmh 30.11 in1019.6 mb 0.00 in0.0 mm 0.00 in0.0 mm 0.00 in0.0 mm
01:40 AM 51.3°F10.7°C 44.0°F6.7°C 76% 6.0 mph E9.7 kmh E 6.0 mph9.7 kmh 30.11 in1019.6 mb 0.00 in0.0 mm 0.00 in0.0 mm 0.00 in0.0 mm
01:45 AM 51.2°F10.7°C 43.9°F6.6°C 76% 4.0 mph E6.4 kmh E 6.0 mph9.7 kmh 30.11 in1019.6 mb 0.00 in0.0 mm 0.00 in0.0 mm 0.00 in0.0 mm
01:50 AM 51.1°F10.6°C 43.8°F6.6°C 76% 4.0 mph E6.4 kmh E 7.0 mph11.3 kmh 30.12 in1020.0 mb 0.00 in0.0 mm 0.00 in0.0 mm 0.00 in0.0 mm
01:55 AM 51.0°F10.6°C 44.1°F6.7°C 77% 4.0 mph E6.4 kmh E 7.0 mph11.3 kmh 30.12 in1020.0 mb 0.00 in0.0 mm 0.00 in0.0 mm 0.00 in0.0 mm
02:00 AM 50.9°F10.5°C 44.0°F6.7°C 77% 2.0 mph E3.2 kmh E 7.0 mph11.3 kmh 30.12 in1020.0 mb 0.00 in0.0 mm 0.00 in0.0 mm 0.00 in0.0 mm
02:05 AM 50.8°F10.4°C 43.5°F6.4°C 76% 3.0 mph E4.8 kmh E 8.0 mph12.9 kmh 30.11 in1019.6 mb 0.00 in0.0 mm 0.00 in0.0 mm 0.00 in0.0 mm
02:10 AM 50.7°F10.4°C 43.8°F6.6°C 77% 3.0 mph E4.8 kmh E 6.0 mph9.7 kmh 30.11 in1019.6 mb 0.00 in0.0 mm 0.00 in0.0 mm 0.00 in0.0 mm
02:15 AM 50.7°F10.4°C 43.4°F6.3°C 76% 4.0 mph E6.4 kmh E 9.0 mph14.5 kmh 30.11 in1019.6 mb 0.00 in0.0 mm 0.00 in0.0 mm 0.00 in0.0 mm
02:20 AM 50.7°F10.4°C 43.8°F6.6°C 77% 7.0 mph E11.3 kmh E 9.0 mph14.5 kmh 30.11 in1019.6 mb 0.00 in0.0 mm 0.00 in0.0 mm 0.00 in0.0 mm
02:25 AM 50.7°F10.4°C 43.8°F6.6°C 77% 3.0 mph E4.8 kmh E 8.0 mph12.9 kmh 30.11 in1019.6 mb 0.00 in0.0 mm 0.00 in0.0 mm 0.00 in0.0 mm
02:30 AM 50.7°F10.4°C 43.8°F6.6°C 77% 6.0 mph E9.7 kmh E 8.0 mph12.9 kmh 30.11 in1019.6 mb 0.00 in0.0 mm 0.00 in0.0 mm 0.00 in0.0 mm
02:35 AM 50.7°F10.4°C 43.8°F6.6°C 77% 6.0 mph E9.7 kmh E 8.0 mph12.9 kmh 30.11 in1019.6 mb 0.00 in0.0 mm 0.00 in0.0 mm 0.00 in0.0 mm
02:40 AM 50.7°F10.4°C 43.8°F6.6°C 77% 2.0 mph E3.2 kmh E 7.0 mph11.3 kmh 30.11 in1019.6 mb 0.00 in0.0 mm 0.00 in0.0 mm 0.00 in0.0 mm
02:45 AM 50.8°F10.4°C 43.9°F6.6°C 77% 3.0 mph E4.8 kmh E 8.0 mph12.9 kmh 30.11 in1019.6 mb 0.00 in0.0 mm 0.00 in0.0 mm 0.00 in0.0 mm
02:50 AM 50.8°F10.4°C 43.9°F6.6°C 77% 6.0 mph E9.7 kmh E 9.0 mph14.5 kmh 30.10 in1019.3 mb 0.00 in0.0 mm 0.00 in0.0 mm 0.00 in0.0 mm
02:55 AM 50.9°F10.5°C 44.0°F6.7°C 77% 6.0 mph E9.7 kmh E 9.0 mph14.5 kmh 30.10 in1019.3 mb 0.00 in0.0 mm 0.00 in0.0 mm 0.00 in0.0 mm
03:00 AM 50.9°F10.5°C 43.6°F6.4°C 76% 7.0 mph E11.3 kmh E 10.0 mph16.1 kmh 30.10 in1019.3 mb 0.00 in0.0 mm 0.00 in0.0 mm 0.00 in0.0 mm
03:05 AM 51.0°F10.6°C 44.1°F6.7°C 77% 7.0 mph E11.3 kmh E 10.0 mph16.1 kmh 30.10 in1019.3 mb 0.00 in0.0 mm 0.00 in0.0 mm 0.00 in0.0 mm
03:10 AM 51.0°F10.6°C 43.7°F6.5°C 76% 3.0 mph E4.8 kmh E 11.0 mph17.7 kmh 30.09 in1019.0 mb 0.00 in0.0 mm 0.00 in0.0 mm 0.00 in0.0 mm
03:15 AM 51.0°F10.6°C 43.7°F6.5°C 76% 3.0 mph E4.8 kmh E 11.0 mph17.7 kmh 30.09 in1019.0 mb 0.00 in0.0 mm 0.00 in0.0 mm 0.00 in0.0 mm
03:20 AM 50.9°F10.5°C 44.0°F6.7°C 77% 1.0 mph ESE1.6 kmh ESE 11.0 mph17.7 kmh 30.09 in1019.0 mb 0.00 in0.0 mm 0.00 in0.0 mm 0.00 in0.0 mm
03:25 AM 50.8°F10.4°C 43.9°F6.6°C 77% 2.0 mph ESE3.2 kmh ESE 3.0 mph4.8 kmh 30.09 in1019.0 mb 0.00 in0.0 mm 0.00 in0.0 mm 0.00 in0.0 mm
03:30 AM 50.8°F10.4°C 43.5°F6.4°C 76% 1.0 mph SE1.6 kmh SE 7.0 mph11.3 kmh 30.08 in1018.6 mb 0.00 in0.0 mm 0.00 in0.0 mm 0.00 in0.0 mm
03:35 AM 50.8°F10.4°C 43.5°F6.4°C 76% 1.0 mph SE1.6 kmh SE 7.0 mph11.3 kmh 30.08 in1018.6 mb 0.00 in0.0 mm 0.00 in0.0 mm 0.00 in0.0 mm
03:40 AM 50.8°F10.4°C 43.5°F6.4°C 76% 1.0 mph SE1.6 kmh SE 3.0 mph4.8 kmh 30.08 in1018.6 mb 0.00 in0.0 mm 0.00 in0.0 mm 0.00 in0.0 mm
03:45 AM 50.8°F10.4°C 43.5°F6.4°C 76% 2.0 mph SE3.2 kmh SE 5.0 mph8.0 kmh 30.08 in1018.6 mb 0.00 in0.0 mm 0.00 in0.0 mm 0.00 in0.0 mm
03:50 AM 50.8°F10.4°C 43.5°F6.4°C 76% 3.0 mph SE4.8 kmh SE 5.0 mph8.0 kmh 30.08 in1018.6 mb 0.00 in0.0 mm 0.00 in0.0 mm 0.00 in0.0 mm
03:55 AM 50.8°F10.4°C 43.2°F6.2°C 75% 2.0 mph SE3.2 kmh SE 4.0 mph6.4 kmh 30.08 in1018.6 mb 0.00 in0.0 mm 0.00 in0.0 mm 0.00 in0.0 mm
04:00 AM 50.9°F10.5°C 43.3°F6.3°C 75% 2.0 mph SE3.2 kmh SE 5.0 mph8.0 kmh 30.08 in1018.6 mb 0.00 in0.0 mm 0.00 in0.0 mm 0.00 in0.0 mm
04:05 AM 51.0°F10.6°C 43.7°F6.5°C 76% 2.0 mph SE3.2 kmh SE 5.0 mph8.0 kmh 30.08 in1018.6 mb 0.00 in0.0 mm 0.00 in0.0 mm 0.00 in0.0 mm
04:10 AM 51.0°F10.6°C 43.7°F6.5°C 76% 5.0 mph SE8.0 kmh SE 7.0 mph11.3 kmh 30.08 in1018.6 mb 0.00 in0.0 mm 0.00 in0.0 mm 0.00 in0.0 mm
04:15 AM 51.1°F10.6°C 43.8°F6.6°C 76% 3.0 mph ESE4.8 kmh ESE 7.0 mph11.3 kmh 30.08 in1018.6 mb 0.00 in0.0 mm 0.00 in0.0 mm 0.00 in0.0 mm
04:20 AM 51.2°F10.7°C 43.9°F6.6°C 76% 2.0 mph ESE3.2 kmh ESE 8.0 mph12.9 kmh 30.08 in1018.6 mb 0.00 in0.0 mm 0.00 in0.0 mm 0.00 in0.0 mm
04:25 AM 51.2°F10.7°C 43.9°F6.6°C 76% 1.0 mph ESE1.6 kmh ESE 6.0 mph9.7 kmh 30.09 in1019.0 mb 0.00 in0.0 mm 0.00 in0.0 mm 0.00 in0.0 mm
04:30 AM 51.1°F10.6°C 43.8°F6.6°C 76% 3.0 mph ESE4.8 kmh ESE 6.0 mph9.7 kmh 30.09 in1019.0 mb 0.00 in0.0 mm 0.00 in0.0 mm 0.00 in0.0 mm
04:35 AM 51.2°F10.7°C 43.9°F6.6°C 76% 4.0 mph ESE6.4 kmh ESE 6.0 mph9.7 kmh 30.08 in1018.6 mb 0.00 in0.0 mm 0.00 in0.0 mm 0.00 in0.0 mm
04:40 AM 51.1°F10.6°C 43.8°F6.6°C 76% 6.0 mph ESE9.7 kmh ESE 9.0 mph14.5 kmh 30.09 in1019.0 mb 0.00 in0.0 mm 0.00 in0.0 mm 0.00 in0.0 mm
04:45 AM 51.1°F10.6°C 43.8°F6.6°C 76% 7.0 mph ESE11.3 kmh ESE 9.0 mph14.5 kmh 30.08 in1018.6 mb 0.00 in0.0 mm 0.00 in0.0 mm 0.00 in0.0 mm
04:50 AM 51.1°F10.6°C 44.2°F6.8°C 77% 6.0 mph ESE9.7 kmh ESE 9.0 mph14.5 kmh 30.08 in1018.6 mb 0.00 in0.0 mm 0.00 in0.0 mm 0.00 in0.0 mm
04:55 AM 51.1°F10.6°C 43.8°F6.6°C 76% 4.0 mph ESE6.4 kmh ESE 8.0 mph12.9 kmh 30.07 in1018.3 mb 0.00 in0.0 mm 0.00 in0.0 mm 0.00 in0.0 mm
05:00 AM 51.0°F10.6°C 44.1°F6.7°C 77% 4.0 mph ESE6.4 kmh ESE 8.0 mph12.9 kmh 30.07 in1018.3 mb 0.00 in0.0 mm 0.00 in0.0 mm 0.00 in0.0 mm
05:05 AM 51.0°F10.6°C 44.1°F6.7°C 77% 4.0 mph ESE6.4 kmh ESE 8.0 mph12.9 kmh 30.07 in1018.3 mb 0.00 in0.0 mm 0.00 in0.0 mm 0.00 in0.0 mm
05:10 AM 51.0°F10.6°C 44.1°F6.7°C 77% 3.0 mph ESE4.8 kmh ESE 4.0 mph6.4 kmh 30.07 in1018.3 mb 0.00 in0.0 mm 0.00 in0.0 mm 0.00 in0.0 mm
05:15 AM 51.0°F10.6°C 44.1°F6.7°C 77% 1.0 mph ESE1.6 kmh ESE 4.0 mph6.4 kmh 30.07 in1018.3 mb 0.00 in0.0 mm 0.00 in0.0 mm 0.00 in0.0 mm
05:20 AM 51.0°F10.6°C 43.7°F6.5°C 76% 1.0 mph ESE1.6 kmh ESE 4.0 mph6.4 kmh 30.07 in1018.3 mb 0.00 in0.0 mm 0.00 in0.0 mm 0.00 in0.0 mm
05:25 AM 51.0°F10.6°C 43.4°F6.3°C 75% 2.0 mph ESE3.2 kmh ESE 2.0 mph3.2 kmh 30.07 in1018.3 mb 0.00 in0.0 mm 0.00 in0.0 mm 0.00 in0.0 mm
05:30 AM 51.0°F10.6°C 43.7°F6.5°C 76% 1.0 mph ESE1.6 kmh ESE 2.0 mph3.2 kmh 30.07 in1018.3 mb 0.00 in0.0 mm 0.00 in0.0 mm 0.00 in0.0 mm
05:35 AM 50.9°F10.5°C 43.3°F6.3°C 75% Calm Calm 3.0 mph4.8 kmh 30.06 in1017.9 mb 0.00 in0.0 mm 0.00 in0.0 mm 0.00 in0.0 mm
05:40 AM 50.9°F10.5°C 42.9°F6.1°C 74% 1.0 mph ESE1.6 kmh ESE 2.0 mph3.2 kmh 30.07 in1018.3 mb 0.00 in0.0 mm 0.00 in0.0 mm 0.00 in0.0 mm
05:45 AM 50.9°F10.5°C 42.9°F6.1°C 74% Calm Calm 2.0 mph3.2 kmh 30.07 in1018.3 mb 0.00 in0.0 mm 0.00 in0.0 mm 0.00 in0.0 mm
05:50 AM 50.8°F10.4°C 42.5°F5.8°C 73% 1.0 mph ESE1.6 kmh ESE 4.0 mph6.4 kmh 30.07 in1018.3 mb 0.00 in0.0 mm 0.00 in0.0 mm 0.00 in0.0 mm
05:55 AM 50.9°F10.5°C 42.9°F6.1°C 74% Calm Calm 1.0 mph1.6 kmh 30.07 in1018.3 mb 0.00 in0.0 mm 0.00 in0.0 mm 0.00 in0.0 mm
06:00 AM 50.9°F10.5°C 42.9°F6.1°C 74% 4.0 mph ESE6.4 kmh ESE 6.0 mph9.7 kmh 30.06 in1017.9 mb 0.00 in0.0 mm 0.00 in0.0 mm 0.00 in0.0 mm
06:05 AM 51.0°F10.6°C 42.7°F5.9°C 73% Calm Calm 6.0 mph9.7 kmh 30.06 in1017.9 mb 0.00 in0.0 mm 0.00 in0.0 mm 0.00 in0.0 mm
06:10 AM 51.0°F10.6°C 43.0°F6.1°C 74% Calm Calm 2.0 mph3.2 kmh 30.06 in1017.9 mb 0.00 in0.0 mm 0.00 in0.0 mm 0.00 in0.0 mm
06:15 AM 51.2°F10.7°C 43.2°F6.2°C 74% 2.0 mph ESE3.2 kmh ESE 4.0 mph6.4 kmh 30.06 in1017.9 mb 0.00 in0.0 mm 0.00 in0.0 mm 0.00 in0.0 mm
06:20 AM 51.3°F10.7°C 43.3°F6.3°C 74% 2.0 mph ESE3.2 kmh ESE 4.0 mph6.4 kmh 30.07 in1018.3 mb 0.00 in0.0 mm 0.00 in0.0 mm 0.00 in0.0 mm
06:25 AM 51.5°F10.8°C 43.1°F6.2°C 73% 2.0 mph ESE3.2 kmh ESE 2.0 mph3.2 kmh 30.07 in1018.3 mb 0.00 in0.0 mm 0.00 in0.0 mm 0.00 in0.0 mm
06:30 AM 51.6°F10.9°C 43.6°F6.4°C 74% 3.0 mph ESE4.8 kmh ESE 4.0 mph6.4 kmh 30.07 in1018.3 mb 0.00 in0.0 mm 0.00 in0.0 mm 0.00 in0.0 mm
06:35 AM 51.6°F10.9°C 43.6°F6.4°C 74% 4.0 mph ESE6.4 kmh ESE 7.0 mph11.3 kmh 30.07 in1018.3 mb 0.00 in0.0 mm 0.00 in0.0 mm 0.00 in0.0 mm
06:40 AM 51.6°F10.9°C 44.0°F6.7°C 75% Calm Calm -- 30.07 in1018.3 mb 0.00 in0.0 mm 0.00 in0.0 mm 0.00 in0.0 mm
06:45 AM 52.0°F11.1°C 44.0°F6.7°C 74% Calm Calm -- 30.07 in1018.3 mb 0.00 in0.0 mm 0.00 in0.0 mm 0.00 in0.0 mm
06:50 AM 52.1°F11.2°C 43.7°F6.5°C 73% 2.0 mph ESE3.2 kmh ESE 3.0 mph4.8 kmh 30.07 in1018.3 mb 0.00 in0.0 mm 0.00 in0.0 mm 0.00 in0.0 mm
06:55 AM 52.1°F11.2°C 43.7°F6.5°C 73% 1.0 mph ESE1.6 kmh ESE 4.0 mph6.4 kmh 30.07 in1018.3 mb 0.00 in0.0 mm 0.00 in0.0 mm 0.00 in0.0 mm
07:00 AM 52.3°F11.3°C 43.6°F6.4°C 72% 2.0 mph ESE3.2 kmh ESE 4.0 mph6.4 kmh 30.07 in1018.3 mb 0.00 in0.0 mm 0.00 in0.0 mm 0.00 in0.0 mm
07:05 AM 52.2°F11.2°C 43.5°F6.4°C 72% 4.0 mph ESE6.4 kmh ESE 6.0 mph9.7 kmh 30.07 in1018.3 mb 0.00 in0.0 mm 0.00 in0.0 mm 0.00 in0.0 mm
07:10 AM 52.3°F11.3°C 44.3°F6.8°C 74% Calm Calm 1.0 mph1.6 kmh 30.07 in1018.3 mb 0.00 in0.0 mm 0.00 in0.0 mm 0.00 in0.0 mm
07:15 AM 52.5°F11.4°C 44.1°F6.7°C 73% 1.0 mph ESE1.6 kmh ESE 4.0 mph6.4 kmh 30.07 in1018.3 mb 0.00 in0.0 mm 0.00 in0.0 mm 0.00 in0.0 mm
07:20 AM 52.7°F11.5°C 43.9°F6.6°C 72% 2.0 mph ESE3.2 kmh ESE 4.0 mph6.4 kmh 30.06 in1017.9 mb 0.00 in0.0 mm 0.00 in0.0 mm 0.00 in0.0 mm
07:25 AM 53.1°F11.7°C 44.3°F6.8°C 72% 1.0 mph ESE1.6 kmh ESE 3.0 mph4.8 kmh 30.07 in1018.3 mb 0.00 in0.0 mm 0.00 in0.0 mm 0.00 in0.0 mm
07:30 AM 53.6°F12.0°C 43.7°F6.5°C 69% 2.0 mph ESE3.2 kmh ESE 4.0 mph6.4 kmh 30.07 in1018.3 mb 0.00 in0.0 mm 0.00 in0.0 mm 0.00 in0.0 mm
07:35 AM 54.1°F12.3°C 43.8°F6.6°C 68% 3.0 mph ESE4.8 kmh ESE 4.0 mph6.4 kmh 30.06 in1017.9 mb 0.00 in0.0 mm 0.00 in0.0 mm 0.00 in0.0 mm
07:40 AM 54.5°F12.5°C 43.4°F6.3°C 66% 2.0 mph SE3.2 kmh SE 2.0 mph3.2 kmh 30.06 in1017.9 mb 0.00 in0.0 mm 0.00 in0.0 mm 0.00 in0.0 mm
07:45 AM 55.1°F12.8°C 44.0°F6.7°C 66% 2.0 mph SE3.2 kmh SE 5.0 mph8.0 kmh 30.06 in1017.9 mb 0.00 in0.0 mm 0.00 in0.0 mm 0.00 in0.0 mm
07:50 AM 55.3°F12.9°C 43.4°F6.3°C 64% 3.0 mph SE4.8 kmh SE 5.0 mph8.0 kmh 30.06 in1017.9 mb 0.00 in0.0 mm 0.00 in0.0 mm 0.00 in0.0 mm
07:55 AM 55.4°F13.0°C 43.4°F6.3°C 64% Calm Calm 3.0 mph4.8 kmh 30.07 in1018.3 mb 0.00 in0.0 mm 0.00 in0.0 mm 0.00 in0.0 mm
08:00 AM 55.2°F12.9°C 43.7°F6.5°C 65% 3.0 mph SE4.8 kmh SE 4.0 mph6.4 kmh 30.06 in1017.9 mb 0.00 in0.0 mm 0.00 in0.0 mm 0.00 in0.0 mm
08:05 AM 55.3°F12.9°C 43.8°F6.6°C 65% 6.0 mph SSE9.7 kmh SSE 7.0 mph11.3 kmh 30.06 in1017.9 mb 0.00 in0.0 mm 0.00 in0.0 mm 0.00 in0.0 mm
08:10 AM 55.3°F12.9°C 43.4°F6.3°C 64% 5.0 mph SSE8.0 kmh SSE 5.0 mph8.0 kmh 30.06 in1017.9 mb 0.00 in0.0 mm 0.00 in0.0 mm 0.00 in0.0 mm
08:15 AM 55.3°F12.9°C 43.4°F6.3°C 64% 2.0 mph SSE3.2 kmh SSE 8.0 mph12.9 kmh 30.06 in1017.9 mb 0.00 in0.0 mm 0.00 in0.0 mm 0.00 in0.0 mm
08:20 AM 55.3°F12.9°C 43.4°F6.3°C 64% 5.0 mph SE8.0 kmh SE 8.0 mph12.9 kmh 30.06 in1017.9 mb 0.00 in0.0 mm 0.00 in0.0 mm 0.00 in0.0 mm
08:25 AM 55.1°F12.8°C 43.2°F6.2°C 64% 2.0 mph SE3.2 kmh SE 4.0 mph6.4 kmh 30.06 in1017.9 mb 0.00 in0.0 mm 0.00 in0.0 mm 0.00 in0.0 mm
08:30 AM 55.1°F12.8°C 43.2°F6.2°C 64% 1.0 mph SSE1.6 kmh SSE 10.0 mph16.1 kmh 30.06 in1017.9 mb 0.00 in0.0 mm 0.00 in0.0 mm 0.00 in0.0 mm
08:35 AM 55.1°F12.8°C 43.6°F6.4°C 65% 4.0 mph SSE6.4 kmh SSE 10.0 mph16.1 kmh 30.07 in1018.3 mb 0.00 in0.0 mm 0.00 in0.0 mm 0.00 in0.0 mm
08:40 AM 55.1°F12.8°C 43.2°F6.2°C 64% 6.0 mph SSE9.7 kmh SSE 6.0 mph9.7 kmh 30.06 in1017.9 mb 0.00 in0.0 mm 0.00 in0.0 mm 0.00 in0.0 mm
08:45 AM 55.1°F12.8°C 43.2°F6.2°C 64% 2.0 mph SSE3.2 kmh SSE 8.0 mph12.9 kmh 30.06 in1017.9 mb 0.00 in0.0 mm 0.00 in0.0 mm 0.00 in0.0 mm
08:50 AM 55.1°F12.8°C 43.2°F6.2°C 64% 7.0 mph SSE11.3 kmh SSE 8.0 mph12.9 kmh 30.06 in1017.9 mb 0.00 in0.0 mm 0.00 in0.0 mm 0.00 in0.0 mm
08:55 AM 55.2°F12.9°C 43.3°F6.3°C 64% 7.0 mph S11.3 kmh S 10.0 mph16.1 kmh 30.07 in1018.3 mb 0.00 in0.0 mm 0.00 in0.0 mm 0.00 in0.0 mm
09:00 AM 55.3°F12.9°C 43.4°F6.3°C 64% 2.0 mph SSE3.2 kmh SSE 10.0 mph16.1 kmh 30.06 in1017.9 mb 0.00 in0.0 mm 0.00 in0.0 mm 0.00 in0.0 mm
09:05 AM 55.5°F13.1°C 43.5°F6.4°C 64% 4.0 mph SSE6.4 kmh SSE 10.0 mph16.1 kmh 30.06 in1017.9 mb 0.00 in0.0 mm 0.00 in0.0 mm 0.00 in0.0 mm
09:10 AM 55.7°F13.2°C 43.7°F6.5°C 64% 4.0 mph SSE6.4 kmh SSE 6.0 mph9.7 kmh 30.05 in1017.6 mb 0.00 in0.0 mm 0.00 in0.0 mm 0.00 in0.0 mm
09:15 AM 55.6°F13.1°C 43.2°F6.2°C 63% 4.0 mph SE6.4 kmh SE 6.0 mph9.7 kmh 30.05 in1017.6 mb 0.00 in0.0 mm 0.00 in0.0 mm 0.00 in0.0 mm
09:20 AM 55.9°F13.3°C 43.5°F6.4°C 63% 1.0 mph SSE1.6 kmh SSE 8.0 mph12.9 kmh 30.05 in1017.6 mb 0.00 in0.0 mm 0.00 in0.0 mm 0.00 in0.0 mm
09:25 AM 55.7°F13.2°C 43.7°F6.5°C 64% 2.0 mph SSE3.2 kmh SSE 4.0 mph6.4 kmh 30.05 in1017.6 mb 0.00 in0.0 mm 0.00 in0.0 mm 0.00 in0.0 mm
09:30 AM 57.3°F14.1°C 44.8°F7.1°C 63% 2.0 mph SSE3.2 kmh SSE 4.0 mph6.4 kmh 30.06 in1017.9 mb 0.00 in0.0 mm 0.00 in0.0 mm 0.00 in0.0 mm
09:35 AM 58.0°F14.4°C 44.6°F7.0°C 61% 5.0 mph S8.0 kmh S 10.0 mph16.1 kmh 30.06 in1017.9 mb 0.00 in0.0 mm 0.00 in0.0 mm 0.00 in0.0 mm
09:40 AM 58.0°F14.4°C 44.2°F6.8°C 60% 3.0 mph S4.8 kmh S 5.0 mph8.0 kmh 30.06 in1017.9 mb 0.00 in0.0 mm 0.00 in0.0 mm 0.00 in0.0 mm
09:45 AM 58.4°F14.7°C 44.1°F6.7°C 59% 9.0 mph S14.5 kmh S 10.0 mph16.1 kmh 30.06 in1017.9 mb 0.00 in0.0 mm 0.00 in0.0 mm 0.00 in0.0 mm
09:50 AM 58.8°F14.9°C 44.1°F6.7°C 58% 5.0 mph S8.0 kmh S 10.0 mph16.1 kmh 30.06 in1017.9 mb 0.00 in0.0 mm 0.00 in0.0 mm 0.00 in0.0 mm
09:55 AM 59.1°F15.1°C 43.9°F6.6°C 57% 8.0 mph S12.9 kmh S 8.0 mph12.9 kmh 30.06 in1017.9 mb 0.00 in0.0 mm 0.00 in0.0 mm 0.00 in0.0 mm
10:00 AM 59.7°F15.4°C 44.5°F6.9°C 57% 6.0 mph SSE9.7 kmh SSE 10.0 mph16.1 kmh 30.06 in1017.9 mb 0.00 in0.0 mm 0.00 in0.0 mm 0.00 in0.0 mm
10:05 AM 59.7°F15.4°C 44.0°F6.7°C 56% 5.0 mph SSE8.0 kmh SSE 10.0 mph16.1 kmh 30.05 in1017.6 mb 0.00 in0.0 mm 0.00 in0.0 mm 0.00 in0.0 mm
10:10 AM 60.9°F16.1°C 44.6°F7.0°C 55% 5.0 mph SSE8.0 kmh SSE 7.0 mph11.3 kmh 30.05 in1017.6 mb 0.00 in0.0 mm 0.00 in0.0 mm 0.00 in0.0 mm
10:15 AM 61.5°F16.4°C 45.2°F7.3°C 55% 1.0 mph SSE1.6 kmh SSE 7.0 mph11.3 kmh 30.06 in1017.9 mb 0.00 in0.0 mm 0.00 in0.0 mm 0.00 in0.0 mm
10:20 AM 62.6°F17.0°C 45.7°F7.6°C 54% 4.0 mph SSE6.4 kmh SSE 7.0 mph11.3 kmh 30.06 in1017.9 mb 0.00 in0.0 mm 0.00 in0.0 mm 0.00 in0.0 mm
10:25 AM 62.3°F16.8°C 44.0°F6.7°C 51% 4.0 mph SSE6.4 kmh SSE 5.0 mph8.0 kmh 30.06 in1017.9 mb 0.00 in0.0 mm 0.00 in0.0 mm 0.00 in0.0 mm
10:30 AM 61.8°F16.6°C 47.8°F8.8°C 60% 4.0 mph S6.4 kmh S 6.0 mph9.7 kmh 30.05 in1017.6 mb 0.00 in0.0 mm 0.00 in0.0 mm 0.00 in0.0 mm
10:35 AM 57.9°F14.4°C 47.8°F8.8°C 69% 2.0 mph S3.2 kmh S 6.0 mph9.7 kmh 30.05 in1017.6 mb 0.00 in0.0 mm 0.00 in0.0 mm 0.00 in0.0 mm
10:40 AM 55.6°F13.1°C 47.1°F8.4°C 73% 4.0 mph S6.4 kmh S 4.0 mph6.4 kmh 30.05 in1017.6 mb 0.00 in0.0 mm 0.00 in0.0 mm 0.00 in0.0 mm
10:45 AM 55.9°F13.3°C 48.5°F9.2°C 76% 4.0 mph S6.4 kmh S 5.0 mph8.0 kmh 30.05 in1017.6 mb 0.00 in0.0 mm 0.00 in0.0 mm 0.00 in0.0 mm
10:50 AM 56.5°F13.6°C 48.0°F8.9°C 73% 5.0 mph S8.0 kmh S 6.0 mph9.7 kmh 30.05 in1017.6 mb 0.00 in0.0 mm 0.00 in0.0 mm 0.00 in0.0 mm
10:55 AM 57.8°F14.3°C 46.5°F8.1°C 66% 5.0 mph S8.0 kmh S 5.0 mph8.0 kmh 30.05 in1017.6 mb 0.00 in0.0 mm 0.00 in0.0 mm 0.00 in0.0 mm
11:00 AM 58.2°F14.6°C 46.5°F8.1°C 65% 4.0 mph S6.4 kmh S 5.0 mph8.0 kmh 30.05 in1017.6 mb 0.00 in0.0 mm 0.00 in0.0 mm 0.00 in0.0 mm
11:05 AM 59.7°F15.4°C 44.5°F6.9°C 57% 2.0 mph S3.2 kmh S 5.0 mph8.0 kmh 30.05 in1017.6 mb 0.00 in0.0 mm 0.00 in0.0 mm 0.00 in0.0 mm
11:10 AM 55.4°F13.0°C 48.3°F9.1°C 77% 6.0 mph NE9.7 kmh NE 7.0 mph11.3 kmh 30.05 in1017.6 mb 0.00 in0.0 mm 0.00 in0.0 mm 0.00 in0.0 mm
11:15 AM 53.8°F12.1°C 47.8°F8.8°C 80% 11.0 mph NE17.7 kmh NE 11.0 mph17.7 kmh 30.05 in1017.6 mb 0.00 in0.0 mm 0.00 in0.0 mm 0.00 in0.0 mm
11:20 AM 53.1°F11.7°C 47.8°F8.8°C 82% 10.0 mph NNE16.1 kmh NNE 12.0 mph19.3 kmh 30.05 in1017.6 mb 0.00 in0.0 mm 0.00 in0.0 mm 0.00 in0.0 mm
11:25 AM 53.2°F11.8°C 47.5°F8.6°C 81% 11.0 mph NNE17.7 kmh NNE 11.0 mph17.7 kmh 30.05 in1017.6 mb 0.00 in0.0 mm 0.00 in0.0 mm 0.00 in0.0 mm
11:30 AM 53.2°F11.8°C 47.9°F8.8°C 82% 11.0 mph NNE17.7 kmh NNE 12.0 mph19.3 kmh 30.05 in1017.6 mb 0.00 in0.0 mm 0.00 in0.0 mm 0.00 in0.0 mm
11:35 AM 53.0°F11.7°C 47.7°F8.7°C 82% 11.0 mph NNE17.7 kmh NNE 12.0 mph19.3 kmh 30.05 in1017.6 mb 0.00 in0.0 mm 0.00 in0.0 mm 0.00 in0.0 mm
11:40 AM 53.3°F11.8°C 48.0°F8.9°C 82% 10.0 mph NNE16.1 kmh NNE 10.0 mph16.1 kmh 30.05 in1017.6 mb 0.00 in0.0 mm 0.00 in0.0 mm 0.00 in0.0 mm
11:45 AM 53.0°F11.7°C 47.7°F8.7°C 82% 8.0 mph NNE12.9 kmh NNE 11.0 mph17.7 kmh 30.05 in1017.6 mb 0.00 in0.0 mm 0.00 in0.0 mm 0.00 in0.0 mm
11:50 AM 53.1°F11.7°C 48.4°F9.1°C 84% 9.0 mph NNE14.5 kmh NNE 11.0 mph17.7 kmh 30.05 in1017.6 mb 0.00 in0.0 mm 0.00 in0.0 mm 0.00 in0.0 mm
11:55 AM 53.4°F11.9°C 48.4°F9.1°C 83% 8.0 mph NNE12.9 kmh NNE 9.0 mph14.5 kmh 30.05 in1017.6 mb 0.00 in0.0 mm 0.00 in0.0 mm 0.00 in0.0 mm
12:00 PM 52.8°F11.6°C 48.1°F8.9°C 84% 11.0 mph NNE17.7 kmh NNE 12.0 mph19.3 kmh 30.05 in1017.6 mb 0.00 in0.0 mm 0.00 in0.0 mm 0.00 in0.0 mm
12:05 PM 52.8°F11.6°C 48.4°F9.1°C 85% 12.0 mph N19.3 kmh N 13.0 mph20.9 kmh 30.05 in1017.6 mb 0.00 in0.0 mm 0.00 in0.0 mm 0.00 in0.0 mm
12:10 PM 53.3°F11.8°C 48.6°F9.2°C 84% 10.0 mph N16.1 kmh N 11.0 mph17.7 kmh 30.05 in1017.6 mb 0.00 in0.0 mm 0.00 in0.0 mm 0.00 in0.0 mm
12:15 PM 53.4°F11.9°C 48.7°F9.3°C 84% 10.0 mph N16.1 kmh N 12.0 mph19.3 kmh 30.05 in1017.6 mb 0.00 in0.0 mm 0.00 in0.0 mm 0.00 in0.0 mm
12:20 PM 53.3°F11.8°C 48.3°F9.1°C 83% 11.0 mph N17.7 kmh N 12.0 mph19.3 kmh 30.04 in1017.3 mb 0.00 in0.0 mm 0.00 in0.0 mm 0.00 in0.0 mm
12:25 PM 53.6°F12.0°C 48.3°F9.1°C 82% 11.0 mph N17.7 kmh N 12.0 mph19.3 kmh 30.04 in1017.3 mb 0.00 in0.0 mm 0.00 in0.0 mm 0.00 in0.0 mm
12:30 PM 54.3°F12.4°C 48.6°F9.2°C 81% 10.0 mph N16.1 kmh N 12.0 mph19.3 kmh 30.05 in1017.6 mb 0.00 in0.0 mm 0.00 in0.0 mm 0.00 in0.0 mm
12:35 PM 54.5°F12.5°C 48.8°F9.3°C 81% 11.0 mph N17.7 kmh N 12.0 mph19.3 kmh 30.04 in1017.3 mb 0.00 in0.0 mm 0.00 in0.0 mm 0.00 in0.0 mm
12:40 PM 54.0°F12.2°C 48.3°F9.1°C 81% 9.0 mph N14.5 kmh N 12.0 mph19.3 kmh 30.05 in1017.6 mb 0.00 in0.0 mm 0.00 in0.0 mm 0.00 in0.0 mm
12:45 PM 54.5°F12.5°C 48.8°F9.3°C 81% 11.0 mph N17.7 kmh N 13.0 mph20.9 kmh 30.04 in1017.3 mb 0.00 in0.0 mm 0.00 in0.0 mm 0.00 in0.0 mm
12:50 PM 54.4°F12.4°C 49.0°F9.4°C 82% 10.0 mph N16.1 kmh N 13.0 mph20.9 kmh 30.04 in1017.3 mb 0.00 in0.0 mm 0.00 in0.0 mm 0.00 in0.0 mm
12:55 PM 54.0°F12.2°C 49.0°F9.4°C 83% 10.0 mph N16.1 kmh N 11.0 mph17.7 kmh 30.04 in1017.3 mb 0.00 in0.0 mm 0.00 in0.0 mm 0.00 in0.0 mm
01:00 PM 54.3°F12.4°C 49.3°F9.6°C 83% 9.0 mph N14.5 kmh N 11.0 mph17.7 kmh 30.04 in1017.3 mb 0.00 in0.0 mm 0.00 in0.0 mm 0.00 in0.0 mm
01:05 PM 54.6°F12.6°C 49.2°F9.6°C 82% 9.0 mph N14.5 kmh N 11.0 mph17.7 kmh 30.04 in1017.3 mb 0.00 in0.0 mm 0.00 in0.0 mm 0.00 in0.0 mm
01:10 PM 54.9°F12.7°C 49.2°F9.6°C 81% 10.0 mph N16.1 kmh N 11.0 mph17.7 kmh 30.04 in1017.3 mb 0.00 in0.0 mm 0.00 in0.0 mm 0.00 in0.0 mm
01:15 PM 55.1°F12.8°C 49.1°F9.5°C 80% 10.0 mph N16.1 kmh N 12.0 mph19.3 kmh 30.04 in1017.3 mb 0.00 in0.0 mm 0.00 in0.0 mm 0.00 in0.0 mm
01:20 PM 54.9°F12.7°C 49.2°F9.6°C 81% 10.0 mph N16.1 kmh N 12.0 mph19.3 kmh 30.04 in1017.3 mb 0.00 in0.0 mm 0.00 in0.0 mm 0.00 in0.0 mm
01:25 PM 54.7°F12.6°C 49.3°F9.6°C 82% 9.0 mph N14.5 kmh N 11.0 mph17.7 kmh 30.03 in1016.9 mb 0.00 in0.0 mm 0.00 in0.0 mm 0.00 in0.0 mm
01:30 PM 54.8°F12.7°C 49.4°F9.7°C 82% 10.0 mph N16.1 kmh N 11.0 mph17.7 kmh 30.03 in1016.9 mb 0.00 in0.0 mm 0.00 in0.0 mm 0.00 in0.0 mm
01:35 PM 54.9°F12.7°C 49.5°F9.7°C 82% 9.0 mph N14.5 kmh N 11.0 mph17.7 kmh 30.03 in1016.9 mb 0.00 in0.0 mm 0.00 in0.0 mm 0.00 in0.0 mm
01:40 PM 54.9°F12.7°C 49.5°F9.7°C 82% 9.0 mph N14.5 kmh N 11.0 mph17.7 kmh 30.03 in1016.9 mb 0.00 in0.0 mm 0.00 in0.0 mm 0.00 in0.0 mm
01:45 PM 54.7°F12.6°C 49.3°F9.6°C 82% 12.0 mph N19.3 kmh N 13.0 mph20.9 kmh 30.03 in1016.9 mb 0.00 in0.0 mm 0.00 in0.0 mm 0.00 in0.0 mm
01:50 PM 54.3°F12.4°C 49.3°F9.6°C 83% 10.0 mph N16.1 kmh N 13.0 mph20.9 kmh 30.03 in1016.9 mb 0.00 in0.0 mm 0.00 in0.0 mm 0.00 in0.0 mm
01:55 PM 54.4°F12.4°C 49.4°F9.7°C 83% 9.0 mph N14.5 kmh N 11.0 mph17.7 kmh 30.04 in1017.3 mb 0.00 in0.0 mm 0.00 in0.0 mm 0.00 in0.0 mm
02:00 PM 54.8°F12.7°C 49.4°F9.7°C 82% 9.0 mph N14.5 kmh N 12.0 mph19.3 kmh 30.04 in1017.3 mb 0.00 in0.0 mm 0.00 in0.0 mm 0.00 in0.0 mm
02:05 PM 54.6°F12.6°C 49.6°F9.8°C 83% 9.0 mph N14.5 kmh N 12.0 mph19.3 kmh 30.04 in1017.3 mb 0.00 in0.0 mm 0.00 in0.0 mm 0.00 in0.0 mm
02:10 PM 54.5°F12.5°C 49.5°F9.7°C 83% 9.0 mph N14.5 kmh N 9.0 mph14.5 kmh 30.04 in1017.3 mb 0.00 in0.0 mm 0.00 in0.0 mm 0.00 in0.0 mm
02:15 PM 54.5°F12.5°C 49.5°F9.7°C 83% 8.0 mph N12.9 kmh N 10.0 mph16.1 kmh 30.04 in1017.3 mb 0.00 in0.0 mm 0.00 in0.0 mm 0.00 in0.0 mm
02:20 PM 54.1°F12.3°C 49.4°F9.7°C 84% 9.0 mph N14.5 kmh N 10.0 mph16.1 kmh 30.04 in1017.3 mb 0.00 in0.0 mm 0.00 in0.0 mm 0.00 in0.0 mm
02:25 PM 54.1°F12.3°C 49.4°F9.7°C 84% 8.0 mph NNE12.9 kmh NNE 9.0 mph14.5 kmh 30.03 in1016.9 mb 0.00 in0.0 mm 0.00 in0.0 mm 0.00 in0.0 mm
02:30 PM 54.3°F12.4°C 49.6°F9.8°C 84% 8.0 mph N12.9 kmh N 9.0 mph14.5 kmh 30.03 in1016.9 mb 0.00 in0.0 mm 0.00 in0.0 mm 0.00 in0.0 mm
02:35 PM 54.4°F12.4°C 49.7°F9.8°C 84% 8.0 mph NNE12.9 kmh NNE 9.0 mph14.5 kmh 30.03 in1016.9 mb 0.00 in0.0 mm 0.00 in0.0 mm 0.00 in0.0 mm
02:40 PM 54.2°F12.3°C 49.5°F9.7°C 84% 8.0 mph NNE12.9 kmh NNE 8.0 mph12.9 kmh 30.03 in1016.9 mb 0.00 in0.0 mm 0.00 in0.0 mm 0.00 in0.0 mm
02:45 PM 54.3°F12.4°C 49.9°F9.9°C 85% 8.0 mph NNE12.9 kmh NNE 10.0 mph16.1 kmh 30.03 in1016.9 mb 0.00 in0.0 mm 0.00 in0.0 mm 0.00 in0.0 mm
02:50 PM 54.3°F12.4°C 49.6°F9.8°C 84% 9.0 mph N14.5 kmh N 10.0 mph16.1 kmh 30.02 in1016.6 mb 0.00 in0.0 mm 0.00 in0.0 mm 0.00 in0.0 mm
02:55 PM 54.8°F12.7°C 49.7°F9.8°C 83% 11.0 mph N17.7 kmh N 11.0 mph17.7 kmh 30.02 in1016.6 mb 0.00 in0.0 mm 0.00 in0.0 mm 0.00 in0.0 mm
03:00 PM 54.9°F12.7°C 49.5°F9.7°C 82% 9.0 mph NNE14.5 kmh NNE 12.0 mph19.3 kmh 30.01 in1016.3 mb 0.00 in0.0 mm 0.00 in0.0 mm 0.00 in0.0 mm
03:05 PM 54.8°F12.7°C 49.7°F9.8°C 83% 7.0 mph N11.3 kmh N 12.0 mph19.3 kmh 30.02 in1016.6 mb 0.00 in0.0 mm 0.00 in0.0 mm 0.00 in0.0 mm
03:10 PM 55.6°F13.1°C 50.2°F10.1°C 82% 8.0 mph N12.9 kmh N 8.0 mph12.9 kmh 30.02 in1016.6 mb 0.00 in0.0 mm 0.00 in0.0 mm 0.00 in0.0 mm
03:15 PM 56.2°F13.4°C 50.1°F10.1°C 80% 9.0 mph N14.5 kmh N 9.0 mph14.5 kmh 30.02 in1016.6 mb 0.00 in0.0 mm 0.00 in0.0 mm 0.00 in0.0 mm
03:20 PM 56.5°F13.6°C 50.1°F10.1°C 79% 9.0 mph N14.5 kmh N 10.0 mph16.1 kmh 30.02 in1016.6 mb 0.00 in0.0 mm 0.00 in0.0 mm 0.00 in0.0 mm
03:25 PM 56.0°F13.3°C 49.9°F9.9°C 80% 9.0 mph N14.5 kmh N 9.0 mph14.5 kmh 30.02 in1016.6 mb 0.00 in0.0 mm 0.00 in0.0 mm 0.00 in0.0 mm
03:30 PM 55.5°F13.1°C 49.8°F9.9°C 81% 8.0 mph N12.9 kmh N 9.0 mph14.5 kmh 30.02 in1016.6 mb 0.00 in0.0 mm 0.00 in0.0 mm 0.00 in0.0 mm
03:35 PM 55.4°F13.0°C 50.0°F10.0°C 82% 8.0 mph N12.9 kmh N 9.0 mph14.5 kmh 30.02 in1016.6 mb 0.00 in0.0 mm 0.00 in0.0 mm 0.00 in0.0 mm
03:40 PM 55.6°F13.1°C 49.9°F9.9°C 81% 8.0 mph N12.9 kmh N 9.0 mph14.5 kmh 30.02 in1016.6 mb 0.00 in0.0 mm 0.00 in0.0 mm 0.00 in0.0 mm
03:45 PM 56.2°F13.4°C 50.5°F10.3°C 81% 9.0 mph N14.5 kmh N 9.0 mph14.5 kmh 30.02 in1016.6 mb 0.00 in0.0 mm 0.00 in0.0 mm 0.00 in0.0 mm
03:50 PM 56.4°F13.6°C 50.0°F10.0°C 79% 7.0 mph N11.3 kmh N 9.0 mph14.5 kmh 30.02 in1016.6 mb 0.00 in0.0 mm 0.00 in0.0 mm 0.00 in0.0 mm
03:55 PM 55.7°F13.2°C 50.0°F10.0°C 81% 5.0 mph N8.0 kmh N 7.0 mph11.3 kmh 30.02 in1016.6 mb 0.00 in0.0 mm 0.00 in0.0 mm 0.00 in0.0 mm
04:00 PM 55.4°F13.0°C 49.7°F9.8°C 81% 5.0 mph N8.0 kmh N 7.0 mph11.3 kmh 30.02 in1016.6 mb 0.00 in0.0 mm 0.00 in0.0 mm 0.00 in0.0 mm
04:05 PM 56.0°F13.3°C 49.9°F9.9°C 80% 5.0 mph N8.0 kmh N 7.0 mph11.3 kmh 30.02 in1016.6 mb 0.00 in0.0 mm 0.00 in0.0 mm 0.00 in0.0 mm
04:10 PM 56.5°F13.6°C 50.1°F10.1°C 79% 7.0 mph N11.3 kmh N 7.0 mph11.3 kmh 30.02 in1016.6 mb 0.00 in0.0 mm 0.00 in0.0 mm 0.00 in0.0 mm
04:15 PM 56.6°F13.7°C 50.2°F10.1°C 79% 7.0 mph N11.3 kmh N 8.0 mph12.9 kmh 30.02 in1016.6 mb 0.00 in0.0 mm 0.00 in0.0 mm 0.00 in0.0 mm
04:20 PM 56.8°F13.8°C 50.0°F10.0°C 78% 7.0 mph N11.3 kmh N 8.0 mph12.9 kmh 30.02 in1016.6 mb 0.00 in0.0 mm 0.00 in0.0 mm 0.00 in0.0 mm
04:25 PM 56.5°F13.6°C 50.1°F10.1°C 79% 7.0 mph N11.3 kmh N 7.0 mph11.3 kmh 30.02 in1016.6 mb 0.00 in0.0 mm 0.00 in0.0 mm 0.00 in0.0 mm
04:30 PM 56.2°F13.4°C 49.8°F9.9°C 79% 8.0 mph N12.9 kmh N 8.0 mph12.9 kmh 30.02 in1016.6 mb 0.00 in0.0 mm 0.00 in0.0 mm 0.00 in0.0 mm
04:35 PM 55.7°F13.2°C 49.6°F9.8°C 80% 7.0 mph N11.3 kmh N 8.0 mph12.9 kmh 30.02 in1016.6 mb 0.00 in0.0 mm 0.00 in0.0 mm 0.00 in0.0 mm
04:40 PM 55.4°F13.0°C 49.7°F9.8°C 81% 8.0 mph N12.9 kmh N 8.0 mph12.9 kmh 30.01 in1016.3 mb 0.00 in0.0 mm 0.00 in0.0 mm 0.00 in0.0 mm
04:45 PM 55.6°F13.1°C 49.9°F9.9°C 81% 7.0 mph N11.3 kmh N 8.0 mph12.9 kmh 30.01 in1016.3 mb 0.00 in0.0 mm 0.00 in0.0 mm 0.00 in0.0 mm
04:50 PM 55.4°F13.0°C 49.7°F9.8°C 81% 7.0 mph N11.3 kmh N 9.0 mph14.5 kmh 30.00 in1015.9 mb 0.00 in0.0 mm 0.00 in0.0 mm 0.00 in0.0 mm
04:55 PM 55.1°F12.8°C 49.7°F9.8°C 82% 8.0 mph N12.9 kmh N 9.0 mph14.5 kmh 30.01 in1016.3 mb 0.00 in0.0 mm 0.00 in0.0 mm 0.00 in0.0 mm
05:00 PM 54.8°F12.7°C 49.4°F9.7°C 82% 8.0 mph NNE12.9 kmh NNE 10.0 mph16.1 kmh 30.01 in1016.3 mb 0.00 in0.0 mm 0.00 in0.0 mm 0.00 in0.0 mm
05:05 PM 54.6°F12.6°C 49.6°F9.8°C 83% 9.0 mph NNE14.5 kmh NNE 10.0 mph16.1 kmh 30.01 in1016.3 mb 0.00 in0.0 mm 0.00 in0.0 mm 0.00 in0.0 mm
05:10 PM 54.4°F12.4°C 49.4°F9.7°C 83% 6.0 mph NNE9.7 kmh NNE 8.0 mph12.9 kmh 30.00 in1015.9 mb 0.00 in0.0 mm 0.00 in0.0 mm 0.00 in0.0 mm
05:15 PM 54.3°F12.4°C 49.6°F9.8°C 84% 5.0 mph NNE8.0 kmh NNE 8.0 mph12.9 kmh 30.00 in1015.9 mb 0.00 in0.0 mm 0.00 in0.0 mm 0.00 in0.0 mm
05:20 PM 54.2°F12.3°C 49.5°F9.7°C 84% 6.0 mph NNE9.7 kmh NNE 8.0 mph12.9 kmh 30.00 in1015.9 mb 0.00 in0.0 mm 0.00 in0.0 mm 0.00 in0.0 mm
05:25 PM 54.6°F12.6°C 49.2°F9.6°C 82% 8.0 mph NNE12.9 kmh NNE 8.0 mph12.9 kmh 30.00 in1015.9 mb 0.00 in0.0 mm 0.00 in0.0 mm 0.00 in0.0 mm
05:30 PM 54.9°F12.7°C 49.2°F9.6°C 81% 9.0 mph NNE14.5 kmh NNE 9.0 mph14.5 kmh 30.00 in1015.9 mb 0.00 in0.0 mm 0.00 in0.0 mm 0.00 in0.0 mm
05:35 PM 55.2°F12.9°C 49.2°F9.6°C 80% 9.0 mph NNE14.5 kmh NNE 9.0 mph14.5 kmh 30.01 in1016.3 mb 0.00 in0.0 mm 0.00 in0.0 mm 0.00 in0.0 mm
05:40 PM 55.8°F13.2°C 49.1°F9.5°C 78% 6.0 mph NNE9.7 kmh NNE 8.0 mph12.9 kmh 30.01 in1016.3 mb 0.00 in0.0 mm 0.00 in0.0 mm 0.00 in0.0 mm
05:45 PM 56.4°F13.6°C 49.3°F9.6°C 77% 8.0 mph NNE12.9 kmh NNE 8.0 mph12.9 kmh 30.01 in1016.3 mb 0.00 in0.0 mm 0.00 in0.0 mm 0.00 in0.0 mm
05:50 PM 56.5°F13.6°C 49.4°F9.7°C 77% 6.0 mph NNE9.7 kmh NNE 8.0 mph12.9 kmh 30.01 in1016.3 mb 0.00 in0.0 mm 0.00 in0.0 mm 0.00 in0.0 mm
05:55 PM 56.2°F13.4°C 49.1°F9.5°C 77% 6.0 mph NNE9.7 kmh NNE 6.0 mph9.7 kmh 30.01 in1016.3 mb 0.00 in0.0 mm 0.00 in0.0 mm 0.00 in0.0 mm
06:00 PM 55.9°F13.3°C 49.2°F9.6°C 78% 6.0 mph NNE9.7 kmh NNE 8.0 mph12.9 kmh 30.01 in1016.3 mb 0.00 in0.0 mm 0.00 in0.0 mm 0.00 in0.0 mm
06:05 PM 55.7°F13.2°C 48.3°F9.1°C 76% 8.0 mph NNE12.9 kmh NNE 9.0 mph14.5 kmh 30.01 in1016.3 mb 0.00 in0.0 mm 0.00 in0.0 mm 0.00 in0.0 mm
06:10 PM 55.9°F13.3°C 48.5°F9.2°C 76% 6.0 mph NNE9.7 kmh NNE 8.0 mph12.9 kmh 30.01 in1016.3 mb 0.00 in0.0 mm 0.00 in0.0 mm 0.00 in0.0 mm
06:15 PM 55.9°F13.3°C 48.5°F9.2°C 76% 6.0 mph NNE9.7 kmh NNE 8.0 mph12.9 kmh 30.01 in1016.3 mb 0.00 in0.0 mm 0.00 in0.0 mm 0.00 in0.0 mm
06:20 PM 55.8°F13.2°C 48.7°F9.3°C 77% 6.0 mph NNE9.7 kmh NNE 8.0 mph12.9 kmh 30.01 in1016.3 mb 0.00 in0.0 mm 0.00 in0.0 mm 0.00 in0.0 mm
06:25 PM 55.5°F13.1°C 48.8°F9.3°C 78% 6.0 mph NNE9.7 kmh NNE 6.0 mph9.7 kmh 30.00 in1015.9 mb 0.00 in0.0 mm 0.00 in0.0 mm 0.00 in0.0 mm
06:30 PM 55.2°F12.9°C 48.8°F9.3°C 79% 6.0 mph NNE9.7 kmh NNE 6.0 mph9.7 kmh 30.01 in1016.3 mb 0.00 in0.0 mm 0.00 in0.0 mm 0.00 in0.0 mm
06:35 PM 54.9°F12.7°C 48.9°F9.4°C 80% 6.0 mph NNE9.7 kmh NNE 6.0 mph9.7 kmh 30.01 in1016.3 mb 0.00 in0.0 mm 0.00 in0.0 mm 0.00 in0.0 mm
06:40 PM 54.8°F12.7°C 48.8°F9.3°C 80% 6.0 mph NNE9.7 kmh NNE 6.0 mph9.7 kmh 30.01 in1016.3 mb 0.00 in0.0 mm 0.00 in0.0 mm 0.00 in0.0 mm
06:45 PM 54.7°F12.6°C 48.7°F9.3°C 80% 6.0 mph NNE9.7 kmh NNE 6.0 mph9.7 kmh 30.01 in1016.3 mb 0.00 in0.0 mm 0.00 in0.0 mm 0.00 in0.0 mm
06:50 PM 54.7°F12.6°C 48.7°F9.3°C 80% 8.0 mph NNE12.9 kmh NNE 8.0 mph12.9 kmh 30.01 in1016.3 mb 0.00 in0.0 mm 0.00 in0.0 mm 0.00 in0.0 mm
06:55 PM 54.9°F12.7°C 48.9°F9.4°C 80% 6.0 mph NNE9.7 kmh NNE 8.0 mph12.9 kmh 30.02 in1016.6 mb 0.00 in0.0 mm 0.00 in0.0 mm 0.00 in0.0 mm
07:00 PM 54.9°F12.7°C 49.2°F9.6°C 81% 8.0 mph NNE12.9 kmh NNE 8.0 mph12.9 kmh 30.02 in1016.6 mb 0.00 in0.0 mm 0.00 in0.0 mm 0.00 in0.0 mm
07:05 PM 54.5°F12.5°C 48.8°F9.3°C 81% 6.0 mph NNE9.7 kmh NNE 8.0 mph12.9 kmh 30.02 in1016.6 mb 0.00 in0.0 mm 0.00 in0.0 mm 0.00 in0.0 mm
07:10 PM 54.2°F12.3°C 48.8°F9.3°C 82% 6.0 mph NNE9.7 kmh NNE 8.0 mph12.9 kmh 30.02 in1016.6 mb 0.00 in0.0 mm 0.00 in0.0 mm 0.00 in0.0 mm
07:15 PM 54.0°F12.2°C 49.0°F9.4°C 83% 8.0 mph NNE12.9 kmh NNE 8.0 mph12.9 kmh 30.02 in1016.6 mb 0.00 in0.0 mm 0.00 in0.0 mm 0.00 in0.0 mm
07:20 PM 54.1°F12.3°C 49.1°F9.5°C 83% 8.0 mph NNE12.9 kmh NNE 9.0 mph14.5 kmh 30.02 in1016.6 mb 0.00 in0.0 mm 0.00 in0.0 mm 0.00 in0.0 mm
07:25 PM 54.1°F12.3°C 49.1°F9.5°C 83% 5.0 mph NNE8.0 kmh NNE 6.0 mph9.7 kmh 30.02 in1016.6 mb 0.00 in0.0 mm 0.00 in0.0 mm 0.00 in0.0 mm
07:30 PM 53.9°F12.2°C 48.9°F9.4°C 83% 5.0 mph NNE8.0 kmh NNE 6.0 mph9.7 kmh 30.02 in1016.6 mb 0.00 in0.0 mm 0.00 in0.0 mm 0.00 in0.0 mm
07:35 PM 53.7°F12.1°C 49.0°F9.4°C 84% 5.0 mph NNE8.0 kmh NNE 6.0 mph9.7 kmh 30.03 in1016.9 mb 0.00 in0.0 mm 0.00 in0.0 mm 0.00 in0.0 mm
07:40 PM 53.4°F11.9°C 48.7°F9.3°C 84% 6.0 mph NE9.7 kmh NE 7.0 mph11.3 kmh 30.02 in1016.6 mb 0.00 in0.0 mm 0.00 in0.0 mm 0.00 in0.0 mm
07:45 PM 53.0°F11.7°C 48.6°F9.2°C 85% 5.0 mph NE8.0 kmh NE 7.0 mph11.3 kmh 30.02 in1016.6 mb 0.00 in0.0 mm 0.00 in0.0 mm 0.00 in0.0 mm
07:50 PM 53.5°F11.9°C 48.5°F9.2°C 83% 7.0 mph NE11.3 kmh NE 10.0 mph16.1 kmh 30.02 in1016.6 mb 0.00 in0.0 mm 0.00 in0.0 mm 0.00 in0.0 mm
07:55 PM 54.0°F12.2°C 48.6°F9.2°C 82% 5.0 mph NE8.0 kmh NE 5.0 mph8.0 kmh 30.02 in1016.6 mb 0.00 in0.0 mm 0.00 in0.0 mm 0.00 in0.0 mm
08:00 PM 53.6°F12.0°C 48.6°F9.2°C 83% 6.0 mph NE9.7 kmh NE 6.0 mph9.7 kmh 30.02 in1016.6 mb 0.00 in0.0 mm 0.00 in0.0 mm 0.00 in0.0 mm
08:05 PM 53.4°F11.9°C 48.4°F9.1°C 83% 5.0 mph NE8.0 kmh NE 7.0 mph11.3 kmh 30.02 in1016.6 mb 0.00 in0.0 mm 0.00 in0.0 mm 0.00 in0.0 mm
08:10 PM 53.3°F11.8°C 48.3°F9.1°C 83% 5.0 mph NE8.0 kmh NE 5.0 mph8.0 kmh 30.02 in1016.6 mb 0.00 in0.0 mm 0.00 in0.0 mm 0.00 in0.0 mm
08:15 PM 53.3°F11.8°C 48.6°F9.2°C 84% 5.0 mph NE8.0 kmh NE 6.0 mph9.7 kmh 30.02 in1016.6 mb 0.00 in0.0 mm 0.00 in0.0 mm 0.00 in0.0 mm
08:20 PM 53.2°F11.8°C 48.5°F9.2°C 84% 9.0 mph NE14.5 kmh NE 10.0 mph16.1 kmh 30.02 in1016.6 mb 0.00 in0.0 mm 0.00 in0.0 mm 0.00 in0.0 mm
08:25 PM 53.4°F11.9°C 48.7°F9.3°C 84% 9.0 mph NE14.5 kmh NE 9.0 mph14.5 kmh 30.02 in1016.6 mb 0.00 in0.0 mm 0.00 in0.0 mm 0.00 in0.0 mm
08:30 PM 53.6°F12.0°C 48.9°F9.4°C 84% 7.0 mph NE11.3 kmh NE 9.0 mph14.5 kmh 30.03 in1016.9 mb 0.00 in0.0 mm 0.00 in0.0 mm 0.00 in0.0 mm
08:35 PM 53.7°F12.1°C 49.0°F9.4°C 84% 7.0 mph NE11.3 kmh NE 9.0 mph14.5 kmh 30.03 in1016.9 mb 0.00 in0.0 mm 0.00 in0.0 mm 0.00 in0.0 mm
08:40 PM 54.0°F12.2°C 49.0°F9.4°C 83% 6.0 mph NE9.7 kmh NE 9.0 mph14.5 kmh 30.03 in1016.9 mb 0.00 in0.0 mm 0.00 in0.0 mm 0.00 in0.0 mm
08:45 PM 54.0°F12.2°C 49.0°F9.4°C 83% 9.0 mph NE14.5 kmh NE 9.0 mph14.5 kmh 30.02 in1016.6 mb 0.00 in0.0 mm 0.00 in0.0 mm 0.00 in0.0 mm
08:50 PM 54.0°F12.2°C 49.0°F9.4°C 83% 8.0 mph NNE12.9 kmh NNE 9.0 mph14.5 kmh 30.02 in1016.6 mb 0.00 in0.0 mm 0.00 in0.0 mm 0.00 in0.0 mm
08:55 PM 54.0°F12.2°C 49.3°F9.6°C 84% 8.0 mph NNE12.9 kmh NNE 9.0 mph14.5 kmh 30.02 in1016.6 mb 0.00 in0.0 mm 0.00 in0.0 mm 0.00 in0.0 mm
09:00 PM 54.0°F12.2°C 49.3°F9.6°C 84% 8.0 mph NNE12.9 kmh NNE 9.0 mph14.5 kmh 30.02 in1016.6 mb 0.00 in0.0 mm 0.00 in0.0 mm 0.00 in0.0 mm
09:05 PM 53.8°F12.1°C 49.1°F9.5°C 84% 9.0 mph NNE14.5 kmh NNE 9.0 mph14.5 kmh 30.02 in1016.6 mb 0.00 in0.0 mm 0.00 in0.0 mm 0.00 in0.0 mm
09:10 PM 53.6°F12.0°C 49.2°F9.6°C 85% 8.0 mph NNE12.9 kmh NNE 10.0 mph16.1 kmh 30.02 in1016.6 mb 0.00 in0.0 mm 0.00 in0.0 mm 0.00 in0.0 mm
09:15 PM 53.6°F12.0°C 49.2°F9.6°C 85% 8.0 mph NNE12.9 kmh NNE 10.0 mph16.1 kmh 30.02 in1016.6 mb 0.00 in0.0 mm 0.00 in0.0 mm 0.00 in0.0 mm
09:20 PM 53.5°F11.9°C 49.1°F9.5°C 85% 8.0 mph NNE12.9 kmh NNE 10.0 mph16.1 kmh 30.02 in1016.6 mb 0.00 in0.0 mm 0.00 in0.0 mm 0.00 in0.0 mm
09:25 PM 53.4°F11.9°C 49.0°F9.4°C 85% 11.0 mph NNE17.7 kmh NNE 11.0 mph17.7 kmh 30.02 in1016.6 mb 0.00 in0.0 mm 0.00 in0.0 mm 0.00 in0.0 mm
09:30 PM 53.2°F11.8°C 49.1°F9.5°C 86% 11.0 mph NNE17.7 kmh NNE 11.0 mph17.7 kmh 30.02 in1016.6 mb 0.00 in0.0 mm 0.00 in0.0 mm 0.00 in0.0 mm
09:35 PM 53.0°F11.7°C 48.9°F9.4°C 86% 10.0 mph NE16.1 kmh NE 11.0 mph17.7 kmh 30.02 in1016.6 mb 0.00 in0.0 mm 0.00 in0.0 mm 0.00 in0.0 mm
09:40 PM 52.9°F11.6°C 48.8°F9.3°C 86% 10.0 mph NE16.1 kmh NE 10.0 mph16.1 kmh 30.02 in1016.6 mb 0.00 in0.0 mm 0.00 in0.0 mm 0.00 in0.0 mm
09:45 PM 52.9°F11.6°C 48.8°F9.3°C 86% 10.0 mph NE16.1 kmh NE 11.0 mph17.7 kmh 30.02 in1016.6 mb 0.00 in0.0 mm 0.00 in0.0 mm 0.00 in0.0 mm
09:50 PM 52.8°F11.6°C 48.7°F9.3°C 86% 7.0 mph NE11.3 kmh NE 11.0 mph17.7 kmh 30.02 in1016.6 mb 0.00 in0.0 mm 0.00 in0.0 mm 0.00 in0.0 mm
09:55 PM 52.6°F11.4°C 48.9°F9.4°C 87% 6.0 mph NE9.7 kmh NE 9.0 mph14.5 kmh 30.02 in1016.6 mb 0.00 in0.0 mm 0.00 in0.0 mm 0.00 in0.0 mm
10:00 PM 52.4°F11.3°C 48.7°F9.3°C 87% 7.0 mph NE11.3 kmh NE 10.0 mph16.1 kmh 30.02 in1016.6 mb 0.00 in0.0 mm 0.00 in0.0 mm 0.00 in0.0 mm
10:05 PM 52.3°F11.3°C 48.9°F9.4°C 88% 7.0 mph NE11.3 kmh NE 10.0 mph16.1 kmh 30.01 in1016.3 mb 0.00 in0.0 mm 0.00 in0.0 mm 0.00 in0.0 mm
10:10 PM 52.2°F11.2°C 48.8°F9.3°C 88% 6.0 mph NE9.7 kmh NE 7.0 mph11.3 kmh 30.01 in1016.3 mb 0.00 in0.0 mm 0.00 in0.0 mm 0.00 in0.0 mm
10:15 PM 52.1°F11.2°C 48.7°F9.3°C 88% 6.0 mph NE9.7 kmh NE 7.0 mph11.3 kmh 30.01 in1016.3 mb 0.00 in0.0 mm 0.00 in0.0 mm 0.00 in0.0 mm
10:20 PM 52.1°F11.2°C 48.7°F9.3°C 88% 5.0 mph NE8.0 kmh NE 7.0 mph11.3 kmh 30.01 in1016.3 mb 0.00 in0.0 mm 0.00 in0.0 mm 0.00 in0.0 mm
10:25 PM 52.1°F11.2°C 48.7°F9.3°C 88% 4.0 mph NE6.4 kmh NE 5.0 mph8.0 kmh 30.01 in1016.3 mb 0.00 in0.0 mm 0.00 in0.0 mm 0.00 in0.0 mm
10:30 PM 52.1°F11.2°C 48.7°F9.3°C 88% 4.0 mph NE6.4 kmh NE 6.0 mph9.7 kmh 30.01 in1016.3 mb 0.00 in0.0 mm 0.00 in0.0 mm 0.00 in0.0 mm
10:35 PM 52.1°F11.2°C 48.7°F9.3°C 88% 6.0 mph NE9.7 kmh NE 6.0 mph9.7 kmh 30.01 in1016.3 mb 0.00 in0.0 mm 0.00 in0.0 mm 0.00 in0.0 mm
10:40 PM 52.2°F11.2°C 48.8°F9.3°C 88% 6.0 mph NE9.7 kmh NE 6.0 mph9.7 kmh 30.01 in1016.3 mb 0.00 in0.0 mm 0.00 in0.0 mm 0.00 in0.0 mm
10:45 PM 52.3°F11.3°C 48.9°F9.4°C 88% 6.0 mph NE9.7 kmh NE 9.0 mph14.5 kmh 30.01 in1016.3 mb 0.00 in0.0 mm 0.00 in0.0 mm 0.00 in0.0 mm
10:50 PM 52.3°F11.3°C 48.6°F9.2°C 87% 7.0 mph NE11.3 kmh NE 9.0 mph14.5 kmh 30.01 in1016.3 mb 0.00 in0.0 mm 0.00 in0.0 mm 0.00 in0.0 mm
10:55 PM 52.3°F11.3°C 48.6°F9.2°C 87% 6.0 mph NE9.7 kmh NE 6.0 mph9.7 kmh 30.01 in1016.3 mb 0.00 in0.0 mm 0.00 in0.0 mm 0.00 in0.0 mm
11:00 PM 52.3°F11.3°C 48.6°F9.2°C 87% 6.0 mph NE9.7 kmh NE 9.0 mph14.5 kmh 30.01 in1016.3 mb 0.00 in0.0 mm 0.00 in0.0 mm 0.00 in0.0 mm
11:05 PM 52.4°F11.3°C 48.7°F9.3°C 87% 9.0 mph NE14.5 kmh NE 10.0 mph16.1 kmh 30.01 in1016.3 mb 0.00 in0.0 mm 0.00 in0.0 mm 0.00 in0.0 mm
11:10 PM 52.5°F11.4°C 48.8°F9.3°C 87% 6.0 mph NE9.7 kmh NE 7.0 mph11.3 kmh 30.01 in1016.3 mb 0.00 in0.0 mm 0.00 in0.0 mm 0.00 in0.0 mm
11:15 PM 52.4°F11.3°C 48.7°F9.3°C 87% 7.0 mph NE11.3 kmh NE 10.0 mph16.1 kmh 30.00 in1015.9 mb 0.00 in0.0 mm 0.00 in0.0 mm 0.00 in0.0 mm
11:20 PM 52.2°F11.2°C 48.5°F9.2°C 87% 6.0 mph NE9.7 kmh NE 10.0 mph16.1 kmh 30.01 in1016.3 mb 0.00 in0.0 mm 0.00 in0.0 mm 0.00 in0.0 mm
11:25 PM 52.1°F11.2°C 48.7°F9.3°C 88% 9.0 mph NE14.5 kmh NE 9.0 mph14.5 kmh 30.01 in1016.3 mb 0.00 in0.0 mm 0.00 in0.0 mm 0.00 in0.0 mm
11:30 PM 51.9°F11.1°C 48.5°F9.2°C 88% 7.0 mph NE11.3 kmh NE 9.0 mph14.5 kmh 30.01 in1016.3 mb 0.00 in0.0 mm 0.00 in0.0 mm 0.00 in0.0 mm
11:35 PM 51.8°F11.0°C 48.4°F9.1°C 88% 6.0 mph NE9.7 kmh NE 9.0 mph14.5 kmh 30.00 in1015.9 mb 0.00 in0.0 mm 0.00 in0.0 mm 0.00 in0.0 mm
11:40 PM 51.6°F10.9°C 48.2°F9.0°C 88% 7.0 mph NE11.3 kmh NE 7.0 mph11.3 kmh 30.00 in1015.9 mb 0.00 in0.0 mm 0.00 in0.0 mm 0.00 in0.0 mm
11:45 PM 51.5°F10.8°C 48.4°F9.1°C 89% 7.0 mph NE11.3 kmh NE 9.0 mph14.5 kmh 30.00 in1015.9 mb 0.00 in0.0 mm 0.00 in0.0 mm 0.00 in0.0 mm
11:50 PM 51.4°F10.8°C 48.3°F9.1°C 89% 5.0 mph NE8.0 kmh NE 9.0 mph14.5 kmh 30.01 in1016.3 mb 0.00 in0.0 mm 0.00 in0.0 mm 0.00 in0.0 mm
11:55 PM 51.3°F10.7°C 48.5°F9.2°C 90% 5.0 mph NE8.0 kmh NE 6.0 mph9.7 kmh 30.00 in1015.9 mb 0.00 in0.0 mm 0.00 in0.0 mm 0.00 in0.0 mm